createdAt,value
2024-02-08T00:04:20.052Z,76.26
2024-02-08T00:09:22.290Z,76.18
2024-02-08T00:14:25.602Z,76.29
2024-02-08T00:19:27.802Z,76.30
2024-02-08T00:24:31.978Z,76.65
2024-02-08T00:29:34.260Z,76.42
2024-02-08T00:34:36.767Z,76.86
2024-02-08T00:39:45.028Z,76.84
2024-02-08T00:44:47.006Z,76.94
2024-02-08T00:49:49.580Z,76.73
2024-02-08T00:54:52.283Z,77.03
2024-02-08T00:59:54.200Z,76.92
2024-02-08T01:04:57.019Z,77.02
2024-02-08T01:10:00.375Z,77.25
2024-02-08T01:15:03.946Z,77.30
2024-02-08T01:20:08.349Z,77.27
2024-02-08T01:25:10.617Z,77.19
2024-02-08T01:30:15.145Z,77.62
2024-02-08T01:35:23.780Z,77.58
2024-02-08T01:40:27.671Z,77.56
2024-02-08T01:45:43.219Z,77.61
2024-02-08T01:50:59.884Z,77.63
2024-02-08T01:56:03.941Z,77.21
2024-02-08T02:01:09.399Z,77.36
2024-02-08T02:06:15.957Z,77.16
2024-02-08T02:11:31.133Z,77.38
2024-02-08T02:16:33.486Z,77.09
2024-02-08T02:21:36.205Z,77.07
2024-02-08T02:26:38.713Z,77.12
2024-02-08T02:31:40.886Z,77.65
2024-02-08T02:36:46.420Z,77.88
2024-02-08T02:41:49.056Z,77.99
2024-02-08T02:46:51.101Z,78.03
2024-02-08T02:51:53.503Z,78.21
2024-02-08T02:56:58.137Z,78.16
2024-02-08T03:02:00.404Z,78.00
2024-02-08T03:07:03.627Z,78.14
2024-02-08T03:12:11.410Z,78.14
2024-02-08T03:17:13.989Z,78.13
2024-02-08T03:22:19.576Z,78.06
2024-02-08T03:27:23.211Z,77.91
2024-02-08T03:32:25.252Z,78.15
2024-02-08T03:37:27.669Z,78.30
2024-02-08T03:42:29.702Z,78.25
2024-02-08T03:47:34.170Z,78.31
2024-02-08T03:52:38.726Z,78.05
2024-02-08T03:57:41.317Z,78.49
2024-02-08T04:02:45.103Z,78.23
2024-02-08T04:08:01.225Z,78.40
2024-02-08T04:13:22.592Z,78.32
2024-02-08T04:18:43.187Z,78.15
2024-02-08T04:24:04.589Z,78.14
2024-02-08T04:29:25.216Z,78.18
2024-02-08T04:34:45.885Z,78.44
2024-02-08T04:40:06.753Z,78.30
2024-02-08T04:45:27.452Z,78.36
2024-02-08T04:50:48.415Z,78.30
2024-02-08T04:55:50.724Z,78.34
2024-02-08T05:00:53.308Z,78.36
2024-02-08T05:05:55.914Z,78.37
2024-02-08T05:10:58.101Z,78.39
2024-02-08T05:16:01.654Z,78.38
2024-02-08T05:21:07.269Z,78.42
2024-02-08T05:26:13.420Z,78.54
2024-02-08T05:31:19.163Z,78.52
2024-02-08T05:36:21.661Z,78.67
2024-02-08T05:41:23.844Z,78.78
2024-02-08T05:46:28.961Z,78.73
2024-02-08T05:51:35.382Z,78.68
2024-02-08T05:56:41.240Z,78.81
2024-02-08T06:01:48.766Z,78.88
2024-02-08T06:07:00.366Z,79.31
2024-02-08T06:12:10.988Z,79.18
2024-02-08T06:17:13.520Z,79.03
2024-02-08T06:22:22.084Z,79.12
2024-02-08T06:27:27.458Z,79.26
2024-02-08T06:32:29.557Z,79.18
2024-02-08T06:37:33.557Z,79.08
2024-02-08T06:42:40.449Z,79.55
2024-02-08T06:48:05.723Z,79.34
2024-02-08T06:53:26.877Z,79.73
2024-02-08T06:58:47.390Z,79.61
2024-02-08T07:04:08.249Z,79.34
2024-02-08T07:09:29.056Z,79.32
2024-02-08T07:14:49.456Z,79.42
2024-02-08T07:20:09.895Z,79.49
2024-02-08T07:25:31.579Z,79.70
2024-02-08T07:30:52.830Z,79.63
2024-02-08T07:36:14.869Z,79.75
2024-02-08T07:41:22.553Z,79.85
2024-02-08T07:46:32.147Z,80.00
2024-02-08T07:51:35.630Z,80.01
2024-02-08T07:56:48.325Z,79.98
2024-02-08T08:01:51.441Z,80.24
2024-02-08T08:07:02.379Z,80.04
2024-02-08T08:12:06.936Z,80.06
2024-02-08T08:17:32.520Z,79.97
2024-02-08T08:22:35.079Z,79.92
2024-02-08T08:27:52.548Z,80.12
2024-02-08T08:33:42.035Z,80.06
2024-02-08T08:39:39.131Z,80.23
2024-02-08T08:44:51.074Z,79.88
2024-02-08T08:49:53.152Z,80.24
2024-02-08T08:55:18.877Z,80.29
2024-02-08T09:00:33.924Z,80.21
2024-02-08T09:05:38.286Z,80.15
2024-02-08T09:10:44.490Z,80.26
2024-02-08T09:15:57.813Z,80.39
2024-02-08T09:21:00.745Z,80.41
2024-02-08T09:26:06.197Z,80.36
2024-02-08T09:31:14.820Z,80.42
2024-02-08T09:36:17.295Z,80.60
2024-02-08T09:41:27.124Z,80.78
2024-02-08T09:46:32.530Z,80.86
2024-02-08T09:51:36.907Z,80.80
2024-02-08T09:56:40.902Z,80.95
2024-02-08T10:01:46.737Z,80.96
2024-02-08T10:06:57.814Z,81.14
2024-02-08T10:12:08.739Z,80.86
2024-02-08T10:17:42.971Z,81.26
2024-02-08T10:22:58.552Z,81.44
2024-02-08T10:28:25.055Z,81.56
2024-02-08T10:33:37.908Z,81.41
2024-02-08T10:44:24.321Z,81.14
2024-02-08T10:49:27.572Z,81.43
2024-02-08T11:01:54.416Z,81.84
2024-02-08T11:13:39.529Z,81.96
2024-02-08T11:18:49.755Z,81.83
2024-02-08T11:23:58.575Z,81.73
2024-02-08T11:30:06.433Z,82.41
2024-02-08T11:35:22.417Z,82.35
2024-02-08T11:40:31.167Z,82.35
2024-02-08T11:45:37.712Z,82.62
2024-02-08T11:50:41.260Z,82.83
2024-02-08T11:55:48.820Z,83.07
2024-02-08T12:00:51.919Z,83.23
2024-02-08T12:06:02.589Z,83.21
2024-02-08T12:11:05.077Z,83.44
2024-02-08T12:16:07.916Z,83.53
2024-02-08T12:21:19.289Z,83.68
2024-02-08T12:26:40.372Z,83.90
2024-02-08T12:31:47.124Z,83.88
2024-02-08T12:36:49.453Z,83.89
2024-02-08T12:41:55.734Z,83.97
2024-02-08T12:46:58.197Z,84.09
2024-02-08T12:52:04.588Z,84.11
2024-02-08T12:57:11.823Z,84.31
2024-02-08T13:02:20.420Z,84.48
2024-02-08T13:07:27.144Z,84.75
2024-02-08T13:13:25.575Z,85.08
2024-02-08T13:18:31.581Z,85.15
2024-02-08T13:23:42.567Z,85.22
2024-02-08T13:28:44.746Z,85.65
2024-02-08T13:33:47.049Z,85.42
2024-02-08T13:38:51.040Z,85.45
2024-02-08T13:43:53.285Z,85.89
2024-02-08T13:48:55.687Z,86.06
2024-02-08T13:53:57.802Z,86.23
2024-02-08T13:59:02.072Z,86.07
2024-02-08T14:04:07.744Z,86.41
2024-02-08T14:09:30.124Z,86.38
2024-02-08T14:14:41.782Z,86.41
2024-02-08T14:19:46.811Z,86.62
2024-02-08T14:24:52.509Z,86.53
2024-02-08T14:29:54.611Z,86.44
2024-02-08T14:40:44.764Z,86.71
2024-02-08T14:45:46.765Z,86.83
2024-02-08T14:50:54.460Z,87.08
2024-02-08T14:55:56.549Z,86.94
2024-02-08T15:01:09.039Z,87.03
2024-02-08T15:06:31.504Z,87.29
2024-02-08T15:11:51.455Z,87.33
2024-02-08T15:16:53.494Z,87.52
2024-02-08T15:21:55.928Z,87.75
2024-02-08T15:27:07.187Z,87.88
2024-02-08T15:32:19.422Z,87.96
2024-02-08T15:37:29.594Z,88.26
2024-02-08T15:42:37.172Z,88.24
2024-02-08T15:47:57.026Z,88.28
2024-02-08T15:53:10.886Z,88.11
2024-02-08T15:58:27.776Z,88.09
2024-02-08T16:03:30.219Z,88.55
2024-02-08T16:08:36.908Z,88.74
2024-02-08T16:13:54.655Z,88.69
2024-02-08T16:19:15.728Z,88.85
2024-02-08T16:24:20.804Z,88.92
2024-02-08T16:29:35.873Z,89.01
2024-02-08T16:34:52.201Z,88.95
2024-02-08T16:40:09.213Z,89.19
2024-02-08T16:45:19.330Z,89.29
2024-02-08T16:50:36.142Z,89.27
2024-02-08T16:55:39.128Z,89.44
2024-02-08T17:00:49.594Z,89.39
2024-02-08T17:05:55.546Z,89.31
2024-02-08T17:11:03.036Z,89.44
2024-02-08T17:16:25.684Z,89.30
2024-02-08T17:21:46.499Z,89.10
2024-02-08T17:27:00.971Z,89.19
2024-02-08T17:32:14.363Z,88.95
2024-02-08T17:37:19.660Z,89.05
2024-02-08T17:42:22.042Z,88.83
2024-02-08T17:47:30.149Z,88.93
2024-02-08T17:52:39.158Z,88.77
2024-02-08T17:57:43.457Z,89.06
2024-02-08T18:02:46.012Z,88.98
2024-02-08T18:07:48.613Z,89.24
2024-02-08T18:12:56.729Z,88.99
2024-02-08T18:18:06.361Z,89.05
2024-02-08T18:23:08.493Z,89.14
2024-02-08T18:28:11.181Z,89.28
2024-02-08T18:33:16.861Z,89.10
2024-02-08T18:38:24.684Z,89.18
2024-02-08T18:43:28.418Z,89.21
2024-02-08T18:48:35.656Z,88.94
2024-02-08T18:53:42.303Z,88.96
2024-02-08T18:58:44.307Z,88.97
2024-02-08T19:03:47.979Z,88.75
2024-02-08T19:08:54.040Z,88.94
2024-02-08T19:13:58.351Z,89.01
2024-02-08T19:19:02.730Z,88.66
2024-02-08T19:24:08.722Z,89.11
2024-02-08T19:29:16.900Z,89.25
2024-02-08T19:34:22.375Z,89.10
2024-02-08T19:39:38.133Z,89.03
2024-02-08T19:44:43.872Z,89.08
2024-02-08T19:49:47.877Z,89.24
2024-02-08T19:54:51.561Z,88.90
2024-02-08T19:59:55.250Z,88.88
2024-02-08T20:05:02.870Z,89.13
2024-02-08T20:10:13.735Z,88.79
2024-02-08T20:15:22.316Z,88.53
2024-02-08T20:20:24.759Z,88.84
2024-02-08T20:25:35.210Z,88.53
2024-02-08T20:30:40.050Z,88.48
2024-02-08T20:35:43.663Z,88.62
2024-02-08T20:40:47.703Z,88.59
2024-02-08T20:45:56.012Z,89.03
2024-02-08T20:51:00.839Z,88.88
2024-02-08T20:56:05.134Z,88.70
2024-02-08T21:01:12.331Z,88.92
2024-02-08T21:06:14.807Z,89.08
2024-02-08T21:11:19.008Z,88.94
2024-02-08T21:16:22.953Z,89.17
2024-02-08T21:21:25.049Z,89.02
2024-02-08T21:26:27.958Z,89.22
2024-02-08T21:31:31.161Z,89.01
2024-02-08T21:36:37.110Z,89.32
2024-02-08T21:41:42.979Z,89.13
2024-02-08T21:46:45.062Z,89.33
2024-02-08T21:51:48.154Z,89.23
2024-02-08T21:56:50.108Z,89.07
2024-02-08T22:01:54.691Z,89.03
2024-02-08T22:06:57.908Z,88.84
2024-02-08T22:12:00.750Z,89.19
2024-02-08T22:17:10.040Z,88.97
2024-02-08T22:22:15.084Z,88.83
2024-02-08T22:27:19.741Z,89.06
2024-02-08T22:32:21.758Z,88.82
2024-02-08T22:37:23.725Z,88.84
2024-02-08T22:42:25.656Z,88.79
2024-02-08T22:47:28.757Z,88.92
2024-02-08T22:52:31.992Z,88.88
2024-02-08T22:57:37.276Z,89.18
2024-02-08T23:02:39.241Z,88.98
2024-02-08T23:07:45.636Z,88.85
2024-02-08T23:12:49.218Z,88.80
2024-02-08T23:17:58.787Z,88.59
2024-02-08T23:23:03.487Z,88.82
2024-02-08T23:28:07.990Z,88.78
2024-02-08T23:33:14.059Z,88.85
2024-02-08T23:38:20.447Z,88.95
2024-02-08T23:43:23.111Z,88.88
2024-02-08T23:48:27.526Z,88.92
2024-02-08T23:53:32.786Z,89.02
2024-02-08T23:58:34.883Z,88.88
